»·PEaware :: N6507W KSBP-L88

N6507W :: KSBP-L88

FLIGHT INFORMATION

Flight Status: Arrived
Operator: Privately registered:
United States
More flights under this callsign
Pilot: Jukka N. (18040)
Aircraft: PIPER PA-28R-201 ARROW
(P28R)
More flights by this aircraft type
Origin: KSBP San Luis Co Regl
United States
Destination: L88 New Cuyama
United States
More flights between these airports :: More routes between these airports
Route:
File this flight plan on PilotEdge
Remarks:
Altitude:
(Current/Filed)
5,500ft
Speed:
(Current/Filed)
150kts
Departed: 09-Mar-19 10:00 AM
Arrived: 09-Mar-19 10:28 AM
Distance/Time
Traveled:
50nm/0:28
Distance/Time
To Go:
Arrived

Flight Plot

Page will automatically refresh every two minutes.

Flight plan parsing failed; only flown route is shown


Map Options




Map Legend


Flown Route
Filed Route
Departure Airport
Arrival Airport
Navaid (VOR, NDB)
Fix

Horizontal Profiles

Position Reports

Time Latitude Longitude Heading Altitude Ground
Speed
09-Mar-19 09:34 35.238362 -120.645853 270 215ft 0kts
09-Mar-19 09:34 35.238362 -120.645853 270 215ft 0kts
09-Mar-19 09:35 35.238362 -120.645853 270 215ft 0kts
09-Mar-19 09:36 35.238362 -120.645853 270 215ft 0kts
09-Mar-19 09:38 35.238362 -120.645853 270 215ft 0kts
09-Mar-19 09:38 35.238362 -120.645853 270 215ft 0kts
09-Mar-19 09:39 35.238362 -120.645853 270 215ft 0kts
09-Mar-19 09:40 35.238362 -120.645853 270 215ft 0kts
09-Mar-19 09:41 35.238362 -120.645853 270 215ft 0kts
09-Mar-19 09:42 35.238362 -120.645853 270 215ft 0kts
09-Mar-19 09:43 35.238362 -120.645853 270 215ft 0kts
09-Mar-19 09:44 35.238362 -120.645853 270 215ft 0kts
09-Mar-19 09:45 35.238362 -120.645853 270 215ft 0kts
09-Mar-19 09:46 35.238362 -120.645853 270 215ft 0kts
09-Mar-19 09:47 35.238362 -120.645853 270 215ft 0kts
09-Mar-19 09:48 35.238362 -120.645853 270 215ft 0kts
09-Mar-19 09:49 35.238331 -120.646090 239 215ft 5kts
09-Mar-19 09:50 35.237672 -120.643870 112 215ft 9kts
09-Mar-19 09:51 35.237791 -120.641210 89 215ft 29kts
09-Mar-19 09:52 35.234834 -120.634702 123 215ft 20kts
09-Mar-19 09:53 35.233176 -120.632005 184 215ft 0kts
09-Mar-19 09:54 35.233176 -120.632005 184 215ft 0kts
09-Mar-19 09:55 35.233091 -120.632099 244 215ft 0kts
09-Mar-19 09:56 35.233091 -120.632099 244 215ft 0kts
09-Mar-19 09:57 35.233091 -120.632099 244 215ft 0kts
09-Mar-19 09:58 35.232875 -120.633174 301 215ft 6kts
09-Mar-19 09:59 35.238072 -120.642027 303 403ft 94kts
09-Mar-19 10:00 35.257877 -120.663260 1 1705ft 95kts
09-Mar-19 10:01 35.282794 -120.655491 22 2690ft 92kts
09-Mar-19 10:02 35.304225 -120.639051 36 3772ft 94kts
09-Mar-19 10:03 35.324268 -120.619504 70 4631ft 114kts
09-Mar-19 10:04 35.316735 -120.579673 129 5380ft 128kts
09-Mar-19 10:05 35.288783 -120.547723 114 5506ft 153kts
09-Mar-19 10:06 35.270414 -120.501551 113 5498ft 149kts
09-Mar-19 10:07 35.252137 -120.456001 113 5498ft 148kts
09-Mar-19 10:08 35.233802 -120.410249 114 5499ft 151kts
09-Mar-19 10:09 35.215182 -120.363853 114 5499ft 151kts
09-Mar-19 10:10 35.196943 -120.318465 117 5496ft 150kts
09-Mar-19 10:11 35.178411 -120.272426 114 5497ft 150kts
09-Mar-19 10:12 35.159951 -120.226613 114 5506ft 150kts
09-Mar-19 10:13 35.141318 -120.180452 118 5505ft 151kts
09-Mar-19 10:14 35.122727 -120.134445 118 5505ft 151kts
09-Mar-19 10:15 35.104091 -120.088398 118 5506ft 151kts
09-Mar-19 10:16 35.085490 -120.042501 118 5506ft 151kts
09-Mar-19 10:17 35.066816 -119.996475 117 5244ft 147kts
09-Mar-19 10:18 35.051044 -119.957693 116 4339ft 119kts
09-Mar-19 10:19 35.036530 -119.922005 115 3441ft 115kts
09-Mar-19 10:20 35.023150 -119.889182 115 3474ft 110kts
09-Mar-19 10:21 35.009331 -119.855255 115 3473ft 112kts
09-Mar-19 10:22 34.995422 -119.821172 115 3473ft 112kts
09-Mar-19 10:23 34.981196 -119.786337 115 3281ft 127kts
09-Mar-19 10:24 34.966633 -119.750702 114 2995ft 96kts
09-Mar-19 10:25 34.955349 -119.723144 114 2819ft 104kts
09-Mar-19 10:26 34.943604 -119.694388 113 2295ft 84kts
09-Mar-19 10:27 34.939816 -119.685270 295 2206ft 18kts
09-Mar-19 10:28 34.942674 -119.691183 5 2206ft 13kts
09-Mar-19 10:29 34.942671 -119.690629 174 2206ft 0kts

Navigation Log

Ident Type
Flight plan parsing failed, navigation log unavailable